sensor_id;sensor_type;location;lat;lon;timestamp;P1;durP1;ratioP1;P2;durP2;ratioP2
72201;SDS011;60105;54.956;73.412;2023-04-25T00:01:29;8.93;;;5.18;;
72201;SDS011;60105;54.956;73.412;2023-04-25T00:04:30;7.47;;;5.00;;
72201;SDS011;60105;54.956;73.412;2023-04-25T00:07:34;11.38;;;4.90;;
72201;SDS011;60105;54.956;73.412;2023-04-25T00:10:36;6.87;;;4.27;;
72201;SDS011;60105;54.956;73.412;2023-04-25T00:13:37;9.13;;;4.77;;
72201;SDS011;60105;54.956;73.412;2023-04-25T00:16:38;7.05;;;3.85;;
72201;SDS011;60105;54.956;73.412;2023-04-25T00:19:51;9.18;;;3.63;;
72201;SDS011;60105;54.956;73.412;2023-04-25T00:22:58;9.87;;;4.30;;
72201;SDS011;60105;54.956;73.412;2023-04-25T00:25:59;10.82;;;4.53;;
72201;SDS011;60105;54.956;73.412;2023-04-25T00:29:00;18.90;;;5.40;;
72201;SDS011;60105;54.956;73.412;2023-04-25T00:35:26;12.52;;;4.85;;
72201;SDS011;60105;54.956;73.412;2023-04-25T00:38:27;7.73;;;4.63;;
72201;SDS011;60105;54.956;73.412;2023-04-25T00:41:29;6.85;;;3.80;;
72201;SDS011;60105;54.956;73.412;2023-04-25T00:44:31;8.07;;;3.40;;
72201;SDS011;60105;54.956;73.412;2023-04-25T00:47:43;6.88;;;3.70;;
72201;SDS011;60105;54.956;73.412;2023-04-25T00:50:54;10.23;;;4.07;;
72201;SDS011;60105;54.956;73.412;2023-04-25T00:54:08;9.93;;;3.70;;
72201;SDS011;60105;54.956;73.412;2023-04-25T01:00:36;6.40;;;3.50;;
72201;SDS011;60105;54.956;73.412;2023-04-25T01:03:48;10.97;;;3.73;;
72201;SDS011;60105;54.956;73.412;2023-04-25T01:07:25;6.93;;;3.72;;
72201;SDS011;60105;54.956;73.412;2023-04-25T01:10:31;6.65;;;4.10;;
72201;SDS011;60105;54.956;73.412;2023-04-25T01:13:32;7.93;;;4.05;;
72201;SDS011;60105;54.956;73.412;2023-04-25T01:16:34;7.22;;;3.80;;
72201;SDS011;60105;54.956;73.412;2023-04-25T01:19:35;5.73;;;3.60;;
72201;SDS011;60105;54.956;73.412;2023-04-25T01:22:42;8.45;;;3.10;;
72201;SDS011;60105;54.956;73.412;2023-04-25T01:25:44;6.50;;;3.83;;
72201;SDS011;60105;54.956;73.412;2023-04-25T01:28:46;10.77;;;3.78;;
72201;SDS011;60105;54.956;73.412;2023-04-25T01:32:25;7.40;;;4.07;;
72201;SDS011;60105;54.956;73.412;2023-04-25T01:35:29;6.80;;;3.90;;
72201;SDS011;60105;54.956;73.412;2023-04-25T01:38:31;8.63;;;3.43;;
72201;SDS011;60105;54.956;73.412;2023-04-25T01:41:32;12.10;;;4.40;;
72201;SDS011;60105;54.956;73.412;2023-04-25T01:44:35;7.23;;;3.17;;
72201;SDS011;60105;54.956;73.412;2023-04-25T01:47:37;6.53;;;3.60;;
72201;SDS011;60105;54.956;73.412;2023-04-25T01:50:45;9.63;;;3.85;;
72201;SDS011;60105;54.956;73.412;2023-04-25T01:53:46;7.30;;;4.03;;
72201;SDS011;60105;54.956;73.412;2023-04-25T01:57:25;14.50;;;4.32;;
72201;SDS011;60105;54.956;73.412;2023-04-25T02:00:27;10.43;;;4.15;;
72201;SDS011;60105;54.956;73.412;2023-04-25T02:03:29;6.90;;;3.47;;
72201;SDS011;60105;54.956;73.412;2023-04-25T02:06:32;7.57;;;3.45;;
72201;SDS011;60105;54.956;73.412;2023-04-25T02:09:34;10.80;;;4.83;;
72201;SDS011;60105;54.956;73.412;2023-04-25T02:12:39;15.77;;;4.47;;
72201;SDS011;60105;54.956;73.412;2023-04-25T02:16:15;13.43;;;4.57;;
72201;SDS011;60105;54.956;73.412;2023-04-25T02:19:17;10.80;;;5.30;;
72201;SDS011;60105;54.956;73.412;2023-04-25T02:25:27;21.35;;;7.72;;
72201;SDS011;60105;54.956;73.412;2023-04-25T02:28:29;29.53;;;11.37;;
72201;SDS011;60105;54.956;73.412;2023-04-25T02:31:31;21.77;;;7.93;;
72201;SDS011;60105;54.956;73.412;2023-04-25T02:34:32;16.63;;;7.25;;
72201;SDS011;60105;54.956;73.412;2023-04-25T02:37:35;9.88;;;4.93;;
72201;SDS011;60105;54.956;73.412;2023-04-25T02:40:38;10.93;;;4.60;;
72201;SDS011;60105;54.956;73.412;2023-04-25T02:43:39;7.28;;;3.88;;
72201;SDS011;60105;54.956;73.412;2023-04-25T02:46:40;7.73;;;4.40;;
72201;SDS011;60105;54.956;73.412;2023-04-25T02:49:41;8.95;;;5.10;;
72201;SDS011;60105;54.956;73.412;2023-04-25T02:52:44;7.00;;;4.03;;
72201;SDS011;60105;54.956;73.412;2023-04-25T02:55:50;9.00;;;4.35;;
72201;SDS011;60105;54.956;73.412;2023-04-25T02:58:53;9.00;;;4.38;;
72201;SDS011;60105;54.956;73.412;2023-04-25T03:02:25;10.82;;;5.72;;
72201;SDS011;60105;54.956;73.412;2023-04-25T03:05:27;12.43;;;6.32;;
72201;SDS011;60105;54.956;73.412;2023-04-25T03:08:38;13.23;;;6.80;;
72201;SDS011;60105;54.956;73.412;2023-04-25T03:11:39;16.00;;;7.65;;
72201;SDS011;60105;54.956;73.412;2023-04-25T03:14:41;15.67;;;4.73;;
72201;SDS011;60105;54.956;73.412;2023-04-25T03:17:42;19.98;;;6.10;;
72201;SDS011;60105;54.956;73.412;2023-04-25T03:20:43;11.75;;;5.75;;
72201;SDS011;60105;54.956;73.412;2023-04-25T03:23:45;7.37;;;3.93;;
72201;SDS011;60105;54.956;73.412;2023-04-25T03:27:25;7.15;;;3.40;;
72201;SDS011;60105;54.956;73.412;2023-04-25T03:30:26;7.72;;;4.57;;
72201;SDS011;60105;54.956;73.412;2023-04-25T03:33:28;7.85;;;4.85;;
72201;SDS011;60105;54.956;73.412;2023-04-25T03:36:37;9.05;;;4.20;;
72201;SDS011;60105;54.956;73.412;2023-04-25T03:39:43;12.37;;;4.60;;
72201;SDS011;60105;54.956;73.412;2023-04-25T03:42:45;6.65;;;3.92;;
72201;SDS011;60105;54.956;73.412;2023-04-25T03:45:47;6.73;;;3.80;;
72201;SDS011;60105;54.956;73.412;2023-04-25T03:48:48;7.25;;;4.03;;
72201;SDS011;60105;54.956;73.412;2023-04-25T03:52:25;6.65;;;5.43;;
72201;SDS011;60105;54.956;73.412;2023-04-25T03:55:28;12.00;;;4.97;;
72201;SDS011;60105;54.956;73.412;2023-04-25T03:58:29;8.90;;;4.60;;
72201;SDS011;60105;54.956;73.412;2023-04-25T04:01:40;14.07;;;6.43;;
72201;SDS011;60105;54.956;73.412;2023-04-25T04:04:52;10.55;;;5.30;;
72201;SDS011;60105;54.956;73.412;2023-04-25T04:08:04;9.20;;;4.20;;
72201;SDS011;60105;54.956;73.412;2023-04-25T04:11:06;11.73;;;3.87;;
72201;SDS011;60105;54.956;73.412;2023-04-25T04:14:13;9.97;;;4.20;;
72201;SDS011;60105;54.956;73.412;2023-04-25T04:20:31;13.60;;;7.25;;
72201;SDS011;60105;54.956;73.412;2023-04-25T04:23:38;11.87;;;6.80;;
72201;SDS011;60105;54.956;73.412;2023-04-25T04:26:41;9.73;;;5.30;;
72201;SDS011;60105;54.956;73.412;2023-04-25T04:30:12;8.53;;;4.73;;
72201;SDS011;60105;54.956;73.412;2023-04-25T04:33:27;8.23;;;4.13;;
72201;SDS011;60105;54.956;73.412;2023-04-25T04:36:38;7.55;;;3.30;;
72201;SDS011;60105;54.956;73.412;2023-04-25T04:39:46;8.00;;;3.93;;
72201;SDS011;60105;54.956;73.412;2023-04-25T04:43:13;6.28;;;3.67;;
72201;SDS011;60105;54.956;73.412;2023-04-25T04:47:25;7.06;;;3.09;;
72201;SDS011;60105;54.956;73.412;2023-04-25T04:50:47;4.78;;;2.75;;
72201;SDS011;60105;54.956;73.412;2023-04-25T04:54:07;5.47;;;3.27;;
72201;SDS011;60105;54.956;73.412;2023-04-25T04:57:34;10.20;;;2.97;;
72201;SDS011;60105;54.956;73.412;2023-04-25T05:00:47;6.83;;;3.37;;
72201;SDS011;60105;54.956;73.412;2023-04-25T05:04:20;6.33;;;3.43;;
72201;SDS011;60105;54.956;73.412;2023-04-25T05:07:39;10.53;;;3.70;;
72201;SDS011;60105;54.956;73.412;2023-04-25T05:10:59;7.27;;;3.47;;
72201;SDS011;60105;54.956;73.412;2023-04-25T05:14:16;13.70;;;3.35;;
72201;SDS011;60105;54.956;73.412;2023-04-25T05:21:01;8.73;;;2.80;;
72201;SDS011;60105;54.956;73.412;2023-04-25T05:24:23;11.00;;;2.97;;
72201;SDS011;60105;54.956;73.412;2023-04-25T05:28:04;6.93;;;2.92;;
72201;SDS011;60105;54.956;73.412;2023-04-25T05:31:29;6.47;;;2.80;;
72201;SDS011;60105;54.956;73.412;2023-04-25T05:34:37;10.88;;;3.45;;
72201;SDS011;60105;54.956;73.412;2023-04-25T05:37:47;12.13;;;3.27;;
72201;SDS011;60105;54.956;73.412;2023-04-25T05:40:49;6.28;;;3.03;;
72201;SDS011;60105;54.956;73.412;2023-04-25T05:44:10;7.35;;;2.95;;
72201;SDS011;60105;54.956;73.412;2023-04-25T05:47:38;6.45;;;3.15;;
72201;SDS011;60105;54.956;73.412;2023-04-25T05:51:00;5.22;;;2.95;;
72201;SDS011;60105;54.956;73.412;2023-04-25T05:54:13;6.70;;;2.70;;
72201;SDS011;60105;54.956;73.412;2023-04-25T06:00:28;5.30;;;2.30;;
72201;SDS011;60105;54.956;73.412;2023-04-25T06:03:35;4.97;;;2.70;;
72201;SDS011;60105;54.956;73.412;2023-04-25T06:07:25;7.67;;;2.77;;
72201;SDS011;60105;54.956;73.412;2023-04-25T06:10:26;6.97;;;2.78;;
72201;SDS011;60105;54.956;73.412;2023-04-25T06:13:28;7.33;;;2.90;;
72201;SDS011;60105;54.956;73.412;2023-04-25T06:16:30;6.28;;;3.03;;
72201;SDS011;60105;54.956;73.412;2023-04-25T06:19:32;5.87;;;2.67;;
72201;SDS011;60105;54.956;73.412;2023-04-25T06:22:34;5.25;;;3.20;;
72201;SDS011;60105;54.956;73.412;2023-04-25T06:25:35;5.72;;;2.70;;
72201;SDS011;60105;54.956;73.412;2023-04-25T06:28:37;12.43;;;3.27;;
72201;SDS011;60105;54.956;73.412;2023-04-25T06:31:39;4.50;;;2.30;;
72201;SDS011;60105;54.956;73.412;2023-04-25T06:34:50;10.13;;;3.15;;
72201;SDS011;60105;54.956;73.412;2023-04-25T06:37:52;6.33;;;2.87;;
72201;SDS011;60105;54.956;73.412;2023-04-25T06:40:56;11.70;;;4.18;;
72201;SDS011;60105;54.956;73.412;2023-04-25T06:43:59;6.20;;;3.20;;
72201;SDS011;60105;54.956;73.412;2023-04-25T06:50:26;9.37;;;3.27;;
72201;SDS011;60105;54.956;73.412;2023-04-25T06:53:28;5.28;;;2.35;;
72201;SDS011;60105;54.956;73.412;2023-04-25T06:56:34;5.82;;;2.60;;
72201;SDS011;60105;54.956;73.412;2023-04-25T06:59:50;10.75;;;2.70;;
72201;SDS011;60105;54.956;73.412;2023-04-25T07:02:56;9.00;;;3.27;;
72201;SDS011;60105;54.956;73.412;2023-04-25T07:05:58;4.00;;;2.27;;
72201;SDS011;60105;54.956;73.412;2023-04-25T07:09:00;5.30;;;2.77;;
72201;SDS011;60105;54.956;73.412;2023-04-25T07:12:03;6.10;;;3.30;;
72201;SDS011;60105;54.956;73.412;2023-04-25T07:15:14;7.63;;;2.85;;
72201;SDS011;60105;54.956;73.412;2023-04-25T07:18:26;8.43;;;3.20;;
72201;SDS011;60105;54.956;73.412;2023-04-25T07:21:28;5.43;;;2.77;;
72201;SDS011;60105;54.956;73.412;2023-04-25T07:24:33;7.60;;;3.00;;
72201;SDS011;60105;54.956;73.412;2023-04-25T07:27:40;11.73;;;4.53;;
72201;SDS011;60105;54.956;73.412;2023-04-25T07:30:51;12.68;;;4.28;;
72201;SDS011;60105;54.956;73.412;2023-04-25T07:33:53;13.02;;;5.43;;
72201;SDS011;60105;54.956;73.412;2023-04-25T07:37:24;8.15;;;3.17;;
72201;SDS011;60105;54.956;73.412;2023-04-25T07:40:37;7.15;;;2.65;;
72201;SDS011;60105;54.956;73.412;2023-04-25T07:43:42;7.83;;;3.33;;
72201;SDS011;60105;54.956;73.412;2023-04-25T07:47:25;17.61;;;4.26;;
72201;SDS011;60105;54.956;73.412;2023-04-25T07:50:27;10.57;;;3.67;;
72201;SDS011;60105;54.956;73.412;2023-04-25T07:53:34;16.50;;;4.10;;
72201;SDS011;60105;54.956;73.412;2023-04-25T07:57:25;8.10;;;3.20;;
72201;SDS011;60105;54.956;73.412;2023-04-25T08:00:28;5.60;;;2.97;;
72201;SDS011;60105;54.956;73.412;2023-04-25T08:03:53;18.30;;;3.53;;
72201;SDS011;60105;54.956;73.412;2023-04-25T08:10:39;10.23;;;2.60;;
72201;SDS011;60105;54.956;73.412;2023-04-25T08:13:41;12.43;;;4.25;;
72201;SDS011;60105;54.956;73.412;2023-04-25T08:17:25;6.97;;;3.62;;
72201;SDS011;60105;54.956;73.412;2023-04-25T08:20:26;7.27;;;2.50;;
72201;SDS011;60105;54.956;73.412;2023-04-25T08:23:30;6.00;;;2.47;;
72201;SDS011;60105;54.956;73.412;2023-04-25T08:26:38;5.22;;;2.83;;
72201;SDS011;60105;54.956;73.412;2023-04-25T08:29:41;10.38;;;3.10;;
72201;SDS011;60105;54.956;73.412;2023-04-25T08:32:43;7.47;;;2.80;;
72201;SDS011;60105;54.956;73.412;2023-04-25T08:36:07;5.80;;;2.72;;
72201;SDS011;60105;54.956;73.412;2023-04-25T08:39:15;5.97;;;2.50;;
72201;SDS011;60105;54.956;73.412;2023-04-25T08:42:31;12.63;;;3.10;;
72201;SDS011;60105;54.956;73.412;2023-04-25T08:45:40;7.90;;;2.88;;
72201;SDS011;60105;54.956;73.412;2023-04-25T08:48:44;8.33;;;3.47;;
72201;SDS011;60105;54.956;73.412;2023-04-25T08:52:25;9.07;;;3.40;;
72201;SDS011;60105;54.956;73.412;2023-04-25T08:55:31;10.50;;;3.17;;
72201;SDS011;60105;54.956;73.412;2023-04-25T08:58:34;5.45;;;2.97;;
72201;SDS011;60105;54.956;73.412;2023-04-25T09:01:36;8.77;;;2.80;;
72201;SDS011;60105;54.956;73.412;2023-04-25T09:04:38;8.40;;;2.97;;
72201;SDS011;60105;54.956;73.412;2023-04-25T09:07:51;7.25;;;3.25;;
72201;SDS011;60105;54.956;73.412;2023-04-25T09:10:52;8.48;;;3.13;;
72201;SDS011;60105;54.956;73.412;2023-04-25T09:14:09;5.30;;;2.70;;
72201;SDS011;60105;54.956;73.412;2023-04-25T09:17:45;11.77;;;3.65;;
72201;SDS011;60105;54.956;73.412;2023-04-25T09:20:47;8.40;;;2.90;;
72201;SDS011;60105;54.956;73.412;2023-04-25T09:23:49;6.35;;;2.47;;
72201;SDS011;60105;54.956;73.412;2023-04-25T09:27:25;4.75;;;3.03;;
72201;SDS011;60105;54.956;73.412;2023-04-25T09:30:56;15.93;;;5.27;;
72201;SDS011;60105;54.956;73.412;2023-04-25T09:34:04;7.37;;;4.60;;
72201;SDS011;60105;54.956;73.412;2023-04-25T09:40:49;15.88;;;5.60;;
72201;SDS011;60105;54.956;73.412;2023-04-25T09:44:13;12.27;;;5.20;;
72201;SDS011;60105;54.956;73.412;2023-04-25T09:50:29;8.25;;;3.70;;
72201;SDS011;60105;54.956;73.412;2023-04-25T09:53:41;10.93;;;4.57;;
72201;SDS011;60105;54.956;73.412;2023-04-25T09:57:25;8.93;;;4.03;;
72201;SDS011;60105;54.956;73.412;2023-04-25T10:00:29;10.83;;;4.43;;
72201;SDS011;60105;54.956;73.412;2023-04-25T10:03:40;10.80;;;4.78;;
72201;SDS011;60105;54.956;73.412;2023-04-25T10:07:25;9.45;;;5.75;;
72201;SDS011;60105;54.956;73.412;2023-04-25T10:10:31;7.45;;;3.80;;
72201;SDS011;60105;54.956;73.412;2023-04-25T10:13:37;7.57;;;3.63;;
72201;SDS011;60105;54.956;73.412;2023-04-25T10:17:25;6.62;;;3.97;;
72201;SDS011;60105;54.956;73.412;2023-04-25T10:20:30;12.77;;;5.97;;
72201;SDS011;60105;54.956;73.412;2023-04-25T10:23:38;9.63;;;4.93;;
72201;SDS011;60105;54.956;73.412;2023-04-25T10:27:27;10.30;;;6.15;;
72201;SDS011;60105;54.956;73.412;2023-04-25T10:30:31;10.48;;;3.65;;
72201;SDS011;60105;54.956;73.412;2023-04-25T10:36:37;6.90;;;3.00;;
72201;SDS011;60105;54.956;73.412;2023-04-25T10:39:43;13.13;;;6.18;;
72201;SDS011;60105;54.956;73.412;2023-04-25T10:42:45;7.50;;;2.97;;
72201;SDS011;60105;54.956;73.412;2023-04-25T10:45:52;8.48;;;3.83;;
72201;SDS011;60105;54.956;73.412;2023-04-25T10:48:54;10.05;;;3.15;;
72201;SDS011;60105;54.956;73.412;2023-04-25T10:52:26;5.15;;;1.95;;
72201;SDS011;60105;54.956;73.412;2023-04-25T10:55:48;6.75;;;2.75;;
72201;SDS011;60105;54.956;73.412;2023-04-25T10:58:51;6.78;;;2.80;;
72201;SDS011;60105;54.956;73.412;2023-04-25T11:05:31;6.30;;;3.08;;
72201;SDS011;60105;54.956;73.412;2023-04-25T11:08:57;7.47;;;3.60;;
72201;SDS011;60105;54.956;73.412;2023-04-25T11:12:03;9.20;;;3.13;;
72201;SDS011;60105;54.956;73.412;2023-04-25T11:15:10;8.80;;;2.60;;
72201;SDS011;60105;54.956;73.412;2023-04-25T11:18:17;11.88;;;2.53;;
72201;SDS011;60105;54.956;73.412;2023-04-25T11:21:30;6.10;;;2.80;;
72201;SDS011;60105;54.956;73.412;2023-04-25T11:24:34;7.93;;;2.10;;
72201;SDS011;60105;54.956;73.412;2023-04-25T11:27:37;12.32;;;2.15;;
72201;SDS011;60105;54.956;73.412;2023-04-25T11:30:55;5.95;;;2.50;;
72201;SDS011;60105;54.956;73.412;2023-04-25T11:33:57;8.35;;;3.00;;
72201;SDS011;60105;54.956;73.412;2023-04-25T11:37:25;7.40;;;2.30;;
72201;SDS011;60105;54.956;73.412;2023-04-25T11:40:27;6.75;;;2.88;;
72201;SDS011;60105;54.956;73.412;2023-04-25T11:43:30;7.50;;;2.70;;
72201;SDS011;60105;54.956;73.412;2023-04-25T11:46:35;5.85;;;2.90;;
72201;SDS011;60105;54.956;73.412;2023-04-25T11:49:37;4.60;;;2.47;;
72201;SDS011;60105;54.956;73.412;2023-04-25T11:52:39;13.20;;;5.38;;
72201;SDS011;60105;54.956;73.412;2023-04-25T11:55:41;5.40;;;2.70;;
72201;SDS011;60105;54.956;73.412;2023-04-25T12:05:27;7.50;;;2.90;;
72201;SDS011;60105;54.956;73.412;2023-04-25T12:08:31;13.13;;;4.27;;
72201;SDS011;60105;54.956;73.412;2023-04-25T12:11:40;5.40;;;3.23;;
72201;SDS011;60105;54.956;73.412;2023-04-25T12:14:46;8.93;;;4.30;;
72201;SDS011;60105;54.956;73.412;2023-04-25T12:17:53;8.10;;;3.50;;
72201;SDS011;60105;54.956;73.412;2023-04-25T12:20:56;8.50;;;3.50;;
72201;SDS011;60105;54.956;73.412;2023-04-25T12:24:16;13.02;;;4.70;;
72201;SDS011;60105;54.956;73.412;2023-04-25T12:27:27;4.15;;;2.75;;
72201;SDS011;60105;54.956;73.412;2023-04-25T12:30:31;9.02;;;2.97;;
72201;SDS011;60105;54.956;73.412;2023-04-25T12:33:57;8.48;;;4.03;;
72201;SDS011;60105;54.956;73.412;2023-04-25T12:37:25;11.13;;;2.85;;
72201;SDS011;60105;54.956;73.412;2023-04-25T12:40:26;12.40;;;4.00;;
72201;SDS011;60105;54.956;73.412;2023-04-25T12:43:38;8.50;;;3.72;;
72201;SDS011;60105;54.956;73.412;2023-04-25T12:46:39;8.23;;;3.50;;
72201;SDS011;60105;54.956;73.412;2023-04-25T12:49:44;6.35;;;2.50;;
72201;SDS011;60105;54.956;73.412;2023-04-25T12:52:45;5.60;;;2.63;;
72201;SDS011;60105;54.956;73.412;2023-04-25T12:55:47;6.78;;;2.58;;
72201;SDS011;60105;54.956;73.412;2023-04-25T12:58:49;4.60;;;1.90;;
72201;SDS011;60105;54.956;73.412;2023-04-25T13:02:25;8.77;;;3.05;;
72201;SDS011;60105;54.956;73.412;2023-04-25T13:05:31;5.80;;;2.00;;
72201;SDS011;60105;54.956;73.412;2023-04-25T13:08:38;7.10;;;2.50;;
72201;SDS011;60105;54.956;73.412;2023-04-25T13:11:53;6.80;;;2.90;;
72201;SDS011;60105;54.956;73.412;2023-04-25T13:14:54;6.15;;;3.42;;
72201;SDS011;60105;54.956;73.412;2023-04-25T13:18:01;6.30;;;2.80;;
72201;SDS011;60105;54.956;73.412;2023-04-25T13:21:04;6.70;;;2.80;;
72201;SDS011;60105;54.956;73.412;2023-04-25T13:24:06;5.50;;;2.57;;
72201;SDS011;60105;54.956;73.412;2023-04-25T13:30:26;5.68;;;2.10;;
72201;SDS011;60105;54.956;73.412;2023-04-25T13:33:37;4.50;;;2.20;;
72201;SDS011;60105;54.956;73.412;2023-04-25T13:36:38;4.30;;;2.00;;
72201;SDS011;60105;54.956;73.412;2023-04-25T13:39:40;4.28;;;2.35;;
72201;SDS011;60105;54.956;73.412;2023-04-25T13:42:41;7.38;;;2.20;;
72201;SDS011;60105;54.956;73.412;2023-04-25T13:45:44;4.83;;;2.17;;
72201;SDS011;60105;54.956;73.412;2023-04-25T13:48:56;3.43;;;2.07;;
72201;SDS011;60105;54.956;73.412;2023-04-25T13:55:26;4.13;;;1.80;;
72201;SDS011;60105;54.956;73.412;2023-04-25T13:58:27;5.65;;;2.13;;
72201;SDS011;60105;54.956;73.412;2023-04-25T14:01:29;9.43;;;2.53;;
72201;SDS011;60105;54.956;73.412;2023-04-25T14:04:31;6.90;;;1.90;;
72201;SDS011;60105;54.956;73.412;2023-04-25T14:07:33;9.33;;;2.47;;
72201;SDS011;60105;54.956;73.412;2023-04-25T14:10:36;5.17;;;2.00;;
72201;SDS011;60105;54.956;73.412;2023-04-25T14:13:37;8.00;;;2.40;;
72201;SDS011;60105;54.956;73.412;2023-04-25T14:16:38;8.50;;;2.10;;
72201;SDS011;60105;54.956;73.412;2023-04-25T14:19:40;6.60;;;2.23;;
72201;SDS011;60105;54.956;73.412;2023-04-25T14:22:55;8.30;;;2.53;;
72201;SDS011;60105;54.956;73.412;2023-04-25T14:26:08;6.07;;;2.60;;
72201;SDS011;60105;54.956;73.412;2023-04-25T14:29:13;6.20;;;2.42;;
72201;SDS011;60105;54.956;73.412;2023-04-25T14:35:26;15.20;;;5.43;;
72201;SDS011;60105;54.956;73.412;2023-04-25T14:38:27;14.23;;;6.03;;
72201;SDS011;60105;54.956;73.412;2023-04-25T14:41:29;18.87;;;7.00;;
72201;SDS011;60105;54.956;73.412;2023-04-25T14:44:30;23.48;;;10.65;;
72201;SDS011;60105;54.956;73.412;2023-04-25T14:47:42;26.42;;;11.88;;
72201;SDS011;60105;54.956;73.412;2023-04-25T14:50:53;28.70;;;11.05;;
72201;SDS011;60105;54.956;73.412;2023-04-25T14:53:54;32.03;;;10.03;;
72201;SDS011;60105;54.956;73.412;2023-04-25T15:00:26;55.85;;;21.92;;
72201;SDS011;60105;54.956;73.412;2023-04-25T15:03:28;51.67;;;20.80;;
72201;SDS011;60105;54.956;73.412;2023-04-25T15:06:29;46.80;;;19.13;;
72201;SDS011;60105;54.956;73.412;2023-04-25T15:09:31;51.67;;;23.13;;
72201;SDS011;60105;54.956;73.412;2023-04-25T15:12:32;48.47;;;25.60;;
72201;SDS011;60105;54.956;73.412;2023-04-25T15:15:33;63.00;;;29.92;;
72201;SDS011;60105;54.956;73.412;2023-04-25T15:18:35;64.03;;;30.23;;
72201;SDS011;60105;54.956;73.412;2023-04-25T15:21:36;65.13;;;29.10;;
72201;SDS011;60105;54.956;73.412;2023-04-25T15:24:38;52.35;;;27.80;;
72201;SDS011;60105;54.956;73.412;2023-04-25T15:27:45;56.42;;;25.10;;
72201;SDS011;60105;54.956;73.412;2023-04-25T15:30:59;42.67;;;22.97;;
72201;SDS011;60105;54.956;73.412;2023-04-25T15:34:00;59.37;;;26.50;;
72201;SDS011;60105;54.956;73.412;2023-04-25T15:40:27;64.93;;;29.33;;
72201;SDS011;60105;54.956;73.412;2023-04-25T15:43:28;71.57;;;29.50;;
72201;SDS011;60105;54.956;73.412;2023-04-25T15:46:29;69.83;;;28.53;;
72201;SDS011;60105;54.956;73.412;2023-04-25T15:49:31;56.17;;;25.80;;
72201;SDS011;60105;54.956;73.412;2023-04-25T15:52:32;47.95;;;25.10;;
72201;SDS011;60105;54.956;73.412;2023-04-25T15:55:34;52.67;;;22.57;;
72201;SDS011;60105;54.956;73.412;2023-04-25T15:58:37;40.67;;;19.60;;
72201;SDS011;60105;54.956;73.412;2023-04-25T16:02:25;39.70;;;20.14;;
72201;SDS011;60105;54.956;73.412;2023-04-25T16:05:26;40.72;;;20.45;;
72201;SDS011;60105;54.956;73.412;2023-04-25T16:08:28;41.13;;;19.23;;
72201;SDS011;60105;54.956;73.412;2023-04-25T16:11:29;40.30;;;18.10;;
72201;SDS011;60105;54.956;73.412;2023-04-25T16:14:40;35.65;;;16.42;;
72201;SDS011;60105;54.956;73.412;2023-04-25T16:17:42;41.10;;;17.27;;
72201;SDS011;60105;54.956;73.412;2023-04-25T16:20:43;40.40;;;16.97;;
72201;SDS011;60105;54.956;73.412;2023-04-25T16:23:45;34.63;;;16.13;;
72201;SDS011;60105;54.956;73.412;2023-04-25T16:27:25;31.20;;;15.57;;
72201;SDS011;60105;54.956;73.412;2023-04-25T16:30:26;29.03;;;14.60;;
72201;SDS011;60105;54.956;73.412;2023-04-25T16:33:28;31.37;;;15.63;;
72201;SDS011;60105;54.956;73.412;2023-04-25T16:36:29;29.67;;;14.83;;
72201;SDS011;60105;54.956;73.412;2023-04-25T16:39:33;28.63;;;14.50;;
72201;SDS011;60105;54.956;73.412;2023-04-25T16:42:35;30.65;;;14.07;;
72201;SDS011;60105;54.956;73.412;2023-04-25T16:45:36;24.90;;;13.73;;
72201;SDS011;60105;54.956;73.412;2023-04-25T16:48:38;34.30;;;14.20;;
72201;SDS011;60105;54.956;73.412;2023-04-25T16:51:39;40.25;;;16.90;;
72201;SDS011;60105;54.956;73.412;2023-04-25T16:54:46;35.35;;;16.58;;
72201;SDS011;60105;54.956;73.412;2023-04-25T16:57:47;33.07;;;14.67;;
72201;SDS011;60105;54.956;73.412;2023-04-25T17:00:48;35.42;;;16.75;;
72201;SDS011;60105;54.956;73.412;2023-04-25T17:03:50;31.57;;;14.87;;
72201;SDS011;60105;54.956;73.412;2023-04-25T17:07:25;37.70;;;16.38;;
72201;SDS011;60105;54.956;73.412;2023-04-25T17:10:26;29.83;;;13.43;;
72201;SDS011;60105;54.956;73.412;2023-04-25T17:13:28;26.47;;;13.37;;
72201;SDS011;60105;54.956;73.412;2023-04-25T17:16:37;27.15;;;11.98;;
72201;SDS011;60105;54.956;73.412;2023-04-25T17:19:39;25.83;;;12.38;;
72201;SDS011;60105;54.956;73.412;2023-04-25T17:22:41;27.17;;;11.87;;
72201;SDS011;60105;54.956;73.412;2023-04-25T17:25:42;20.85;;;10.75;;
72201;SDS011;60105;54.956;73.412;2023-04-25T17:28:48;21.03;;;10.73;;
72201;SDS011;60105;54.956;73.412;2023-04-25T17:32:25;21.45;;;11.02;;
72201;SDS011;60105;54.956;73.412;2023-04-25T17:35:27;21.50;;;10.50;;
72201;SDS011;60105;54.956;73.412;2023-04-25T17:38:29;19.10;;;9.43;;
72201;SDS011;60105;54.956;73.412;2023-04-25T17:41:36;14.63;;;9.05;;
72201;SDS011;60105;54.956;73.412;2023-04-25T17:44:38;17.63;;;8.67;;
72201;SDS011;60105;54.956;73.412;2023-04-25T17:47:39;15.10;;;7.45;;
72201;SDS011;60105;54.956;73.412;2023-04-25T17:50:41;14.82;;;7.88;;
72201;SDS011;60105;54.956;73.412;2023-04-25T17:53:42;12.77;;;6.73;;
72201;SDS011;60105;54.956;73.412;2023-04-25T17:57:25;20.13;;;8.50;;
72201;SDS011;60105;54.956;73.412;2023-04-25T18:00:27;14.77;;;6.25;;
72201;SDS011;60105;54.956;73.412;2023-04-25T18:03:29;14.90;;;6.63;;
72201;SDS011;60105;54.956;73.412;2023-04-25T18:07:25;11.43;;;5.89;;
72201;SDS011;60105;54.956;73.412;2023-04-25T18:10:26;11.27;;;6.60;;
72201;SDS011;60105;54.956;73.412;2023-04-25T18:13:38;13.07;;;6.47;;
72201;SDS011;60105;54.956;73.412;2023-04-25T18:16:43;14.10;;;5.82;;
72201;SDS011;60105;54.956;73.412;2023-04-25T18:19:44;14.23;;;6.65;;
72201;SDS011;60105;54.956;73.412;2023-04-25T18:22:46;12.33;;;6.10;;
72201;SDS011;60105;54.956;73.412;2023-04-25T18:25:57;14.88;;;5.32;;
72201;SDS011;60105;54.956;73.412;2023-04-25T18:28:58;14.80;;;5.90;;
72201;SDS011;60105;54.956;73.412;2023-04-25T18:35:32;10.63;;;5.20;;
72201;SDS011;60105;54.956;73.412;2023-04-25T18:38:33;10.30;;;4.57;;
72201;SDS011;60105;54.956;73.412;2023-04-25T18:41:35;13.10;;;5.20;;
72201;SDS011;60105;54.956;73.412;2023-04-25T18:44:37;11.38;;;5.80;;
72201;SDS011;60105;54.956;73.412;2023-04-25T18:47:42;11.80;;;5.23;;
72201;SDS011;60105;54.956;73.412;2023-04-25T18:50:43;9.75;;;5.30;;
72201;SDS011;60105;54.956;73.412;2023-04-25T18:53:48;10.37;;;5.00;;
72201;SDS011;60105;54.956;73.412;2023-04-25T18:57:24;12.98;;;5.35;;
72201;SDS011;60105;54.956;73.412;2023-04-25T19:00:26;10.93;;;5.10;;
72201;SDS011;60105;54.956;73.412;2023-04-25T19:03:27;13.20;;;5.18;;
72201;SDS011;60105;54.956;73.412;2023-04-25T19:06:28;13.40;;;5.50;;
72201;SDS011;60105;54.956;73.412;2023-04-25T19:09:30;11.50;;;5.03;;
72201;SDS011;60105;54.956;73.412;2023-04-25T19:12:31;10.43;;;4.73;;
72201;SDS011;60105;54.956;73.412;2023-04-25T19:15:33;9.82;;;4.43;;
72201;SDS011;60105;54.956;73.412;2023-04-25T19:18:34;9.63;;;4.80;;
72201;SDS011;60105;54.956;73.412;2023-04-25T19:21:35;9.73;;;4.88;;
72201;SDS011;60105;54.956;73.412;2023-04-25T19:24:37;15.83;;;4.47;;
72201;SDS011;60105;54.956;73.412;2023-04-25T19:27:47;8.97;;;4.57;;
72201;SDS011;60105;54.956;73.412;2023-04-25T19:30:48;8.23;;;4.90;;
72201;SDS011;60105;54.956;73.412;2023-04-25T19:33:50;10.80;;;4.73;;
72201;SDS011;60105;54.956;73.412;2023-04-25T19:37:25;8.68;;;5.05;;